Latest Weather Observations for Cape Otway

IDV60801

Issued at 5:02 am EST Monday 6 July 2015 (issued every 30 minutes, with the page automatically refreshed every 10 minutes)

About weather observations | Map of weather stations | Latest weather observations for VIC | Other Formats
Station Details ID: 090015 Name: CAPE OTWAY LIGHTHOUSE Lat: -38.86 Lon: 143.51 Height: 82.0 m
Data from the previous 72 hours. | See also: Recent months at Cape Otway
Date/Time
EST
Temp
°C
App
Temp
°C
Dew
Point
Rel
Hum
%
Delta-T
°C
Wind Press
QNH
hPa
Press
MSL
hPa
Rain
since 9 am
mm
Dir
 
Spd
km/h
Gust
km/h
Spd
kts
Gust
kts
06/05:00am 11.2 5.4 4.4 63 3.1 NNW 24 43 13 23 1012.8 - 0.0
06/04:30am 11.2 5.5 4.7 64 3.0 N 24 35 13 19 1013.0 - 0.0
06/04:00am 11.6 6.3 4.8 63 3.1 NNW 22 37 12 20 1013.0 - 0.0
06/03:30am 11.8 5.7 4.8 62 3.2 NNW 26 43 14 23 1013.0 - 0.0
06/03:00am 11.7 4.8 4.7 62 3.2 NNW 30 43 16 23 1013.1 1013.2 0.0
06/02:42am 11.5 4.6 4.7 63 3.1 NNW 30 48 16 26 1013.2 - 0.0
06/02:30am 11.6 4.1 4.6 62 3.2 N 33 48 18 26 1013.2 - 0.0
06/02:00am 11.9 4.6 4.6 61 3.3 N 32 50 17 27 1013.1 - 0.0
06/01:50am 11.9 5.4 4.6 61 3.3 N 28 46 15 25 1013.0 - 0.0
06/01:30am 12.0 4.7 4.7 61 3.3 N 32 44 17 24 1013.3 - 0.0
06/01:07am 12.1 5.6 4.6 60 3.4 N 28 46 15 25 1013.6 - 0.0
06/01:00am 12.1 5.6 4.8 61 3.4 N 28 44 15 24 1013.7 - 0.0
06/12:30am 12.1 5.6 4.8 61 3.4 NNW 28 46 15 25 1014.0 - 0.0
06/12:26am 12.1 5.6 4.8 61 3.3 NNW 28 46 15 25 1014.0 - 0.0
06/12:00am 12.0 5.6 5.0 62 3.2 N 28 41 15 22 1014.1 1014.2 0.0
 
Date/Time
EST
Temp
°C
App
Temp
°C
Dew
Point
Rel
Hum
%
Delta-T
°C
Wind Press
QNH
hPa
Press
MSL
hPa
Rain
since 9 am
mm
Dir
 
Spd
km/h
Gust
km/h
Spd
kts
Gust
kts
05/11:30pm 12.1 6.0 5.0 62 3.3 N 26 37 14 20 1014.3 - 0.0
05/11:00pm 12.3 6.3 5.2 62 3.3 N 26 39 14 21 1014.2 - 0.0
05/10:30pm 12.3 5.9 5.2 62 3.3 NNW 28 44 15 24 1014.3 - 0.0
05/10:00pm 12.4 6.0 5.3 62 3.3 NNW 28 43 15 23 1014.5 - 0.0
05/09:30pm 12.3 6.3 5.5 63 3.2 N 26 39 14 21 1014.6 - 0.0
05/09:00pm 12.2 6.7 5.8 65 3.0 N 24 41 13 22 1014.7 1014.8 0.0
05/08:30pm 12.2 6.3 5.8 65 3.0 N 26 35 14 19 1014.8 - 0.0
05/08:00pm 12.2 6.7 5.8 65 3.0 N 24 35 13 19 1014.9 - 0.0
05/07:30pm 12.6 6.7 6.0 64 3.1 NNW 26 37 14 20 1014.9 - 0.0
05/07:00pm 13.0 7.2 6.1 63 3.3 NNW 26 41 14 22 1014.9 - 0.0
05/06:30pm 13.0 7.3 6.6 65 3.1 NNW 26 43 14 23 1014.9 - 0.0
05/06:15pm 13.1 7.0 6.7 65 3.1 NNW 28 48 15 26 1014.9 - 0.0
05/06:00pm 13.2 7.9 6.8 65 3.1 NNW 24 39 13 21 1014.8 1014.9 0.0
05/05:30pm 13.0 8.1 7.0 67 2.9 NW 22 33 12 18 1014.7 - 0.0
05/05:00pm 13.2 7.9 7.0 66 3.0 NNW 24 41 13 22 1014.7 - 0.0
05/04:48pm 13.5 7.4 6.8 64 3.2 NNW 28 46 15 25 1014.6 - 0.0
05/04:30pm 13.5 7.1 7.1 65 3.1 NNW 30 41 16 22 1014.6 - 0.0
05/04:05pm 13.8 7.8 6.9 63 3.4 NNW 28 48 15 26 1014.7 - 0.0
05/04:00pm 13.9 8.3 7.0 63 3.4 NNW 26 41 14 22 1014.7 - 0.0
05/03:30pm 13.9 7.9 7.0 63 3.4 NNW 28 43 15 23 1014.7 - 0.0
05/03:01pm 14.6 8.1 6.7 59 3.9 NNW 30 48 16 26 1014.7 - 0.0
05/03:00pm 14.6 7.8 6.7 59 3.8 NNW 32 48 17 26 1014.7 1014.8 0.0
05/02:55pm 14.9 8.5 7.0 59 3.9 NNW 30 48 16 26 1014.7 - 0.0
05/02:30pm 14.2 8.5 6.8 61 3.6 NNW 26 43 14 23 1015.0 - 0.0
05/02:00pm 14.1 9.3 7.4 64 3.3 NW 22 33 12 18 1015.2 - 0.0
05/01:30pm 14.8 9.7 7.6 62 3.6 NNW 24 37 13 20 1015.4 - 0.0
05/01:00pm 14.4 7.9 6.7 60 3.7 NNW 30 44 16 24 1015.5 - 0.0
05/12:30pm 13.2 7.1 6.5 64 3.2 NNW 28 46 15 25 1015.9 - 0.0
05/12:00pm 12.8 6.3 6.4 65 3.1 NNW 30 48 16 26 1016.2 1016.3 0.0
05/11:30am 13.8 7.0 6.7 62 3.4 NNW 32 50 17 27 1016.8 - 0.0
05/11:18am 13.8 7.3 6.4 61 3.6 NNW 30 48 16 26 1016.9 - 0.0
05/11:00am 13.3 7.2 6.6 64 3.2 NNW 28 43 15 23 1017.3 - 0.0
05/10:40am 12.9 6.7 6.3 64 3.1 NNW 28 46 15 25 1017.4 - 0.0
05/10:30am 12.8 7.0 6.4 65 3.1 NNW 26 44 14 24 1017.5 - 0.0
05/10:04am 11.9 5.7 6.2 68 2.7 NNW 28 46 15 25 1017.6 - 0.0
05/10:00am 11.9 5.7 6.2 68 2.7 NNW 28 41 15 22 1017.6 - 0.0
05/09:31am 11.7 5.5 6.2 69 2.6 NNW 28 46 15 25 1017.6 - 0.0
05/09:30am 11.6 5.4 6.1 69 2.6 NNW 28 44 15 24 1017.6 - 0.0
05/09:03am 11.2 4.9 5.9 70 2.5 NNW 28 46 15 25 1017.6 - 0.0
05/09:00am 11.2 4.6 5.9 70 2.5 NNW 30 43 16 23 1017.5 1017.6 0.6
05/08:37am 11.1 4.9 6.0 71 2.4 NNW 28 48 15 26 1017.5 - 0.6
05/08:30am 11.0 4.8 6.0 71 2.3 NNW 28 43 15 23 1017.4 - 0.6
05/08:00am 10.9 4.4 6.3 73 2.2 NNW 30 50 16 27 1017.4 - 0.6
05/07:53am 10.9 4.7 6.3 73 2.2 NNW 28 50 15 27 1017.4 - 0.6
05/07:30am 10.9 4.4 6.3 73 2.2 NNW 30 46 16 25 1017.3 - 0.6
05/07:26am 11.0 4.9 6.4 73 2.2 NNW 28 46 15 25 1017.4 - 0.6
05/07:00am 11.1 4.6 6.5 73 2.2 NNW 30 44 16 24 1017.2 - 0.6
05/06:30am 11.2 5.9 6.7 74 2.1 NNW 24 37 13 20 1017.2 - 0.6
05/06:00am 11.2 5.2 7.1 76 2.0 NNW 28 41 15 22 1017.3 1017.4 0.6
05/05:48am 11.2 5.2 7.1 76 2.0 NNW 28 46 15 25 1017.2 - 0.6
05/05:30am 11.2 5.6 7.3 77 1.9 NNW 26 35 14 19 1017.2 - 0.6
05/05:00am 11.1 5.5 7.2 77 1.9 NNW 26 39 14 21 1017.1 - 0.6
05/04:30am 11.4 5.9 7.7 78 1.8 NNW 26 41 14 22 1017.3 - 0.6
05/04:00am 11.3 6.2 7.6 78 1.8 NNW 24 37 13 20 1017.5 - 0.6
05/03:30am 11.3 6.2 7.8 79 1.7 NW 24 39 13 21 1017.8 - 0.6
05/03:00am 11.2 5.7 7.7 79 1.7 NW 26 43 14 23 1017.9 1018.0 0.6
05/02:30am 11.4 6.0 8.1 80 1.6 NW 26 44 14 24 1017.8 - 0.6
05/02:00am 11.4 6.8 8.3 81 1.5 NW 22 35 12 19 1017.8 - 0.6
05/01:30am 11.1 6.1 8.1 82 1.5 NNW 24 35 13 19 1017.9 - 0.6
05/01:00am 11.1 6.5 8.3 83 1.4 NNW 22 41 12 22 1017.9 - 0.6
05/12:30am 11.1 5.8 8.3 83 1.4 NNW 26 39 14 21 1018.2 - 0.6
05/12:00am 11.2 6.7 8.6 84 1.3 NW 22 46 12 25 1018.5 1018.6 0.6
 
Date/Time
EST
Temp
°C
App
Temp
°C
Dew
Point
Rel
Hum
%
Delta-T
°C
Wind Press
QNH
hPa
Press
MSL
hPa
Rain
since 9 am
mm
Dir
 
Spd
km/h
Gust
km/h
Spd
kts
Gust
kts
04/11:30pm 11.2 7.0 8.4 83 1.4 NW 20 32 11 17 1018.9 - 0.6
04/11:00pm 11.0 6.8 8.4 84 1.3 NW 20 32 11 17 1019.0 - 0.6
04/10:30pm 11.0 6.8 8.4 84 1.3 NW 20 33 11 18 1019.3 - 0.6
04/10:00pm 10.5 5.9 8.1 85 1.2 NW 22 32 12 17 1019.4 - 0.6
04/09:30pm 10.2 5.6 8.1 87 1.0 NNW 22 32 12 17 1019.5 - 0.6
04/09:00pm 10.4 6.3 8.7 89 0.8 NNW 20 28 11 15 1019.7 1019.8 0.6
04/08:30pm 10.4 6.3 8.8 90 0.8 NNW 20 30 11 16 1019.7 - 0.6
04/08:00pm 10.6 6.8 9.2 91 0.7 NNW 19 28 10 15 1019.8 - 0.6
04/07:30pm 10.2 6.3 8.8 91 0.7 NNW 19 26 10 14 1019.8 - 0.6
04/07:00pm 10.2 6.1 8.8 91 0.7 NNW 20 28 11 15 1019.7 - 0.6
04/06:30pm 10.6 6.8 9.2 91 0.7 NW 19 32 10 17 1019.6 - 0.6
04/06:00pm 10.9 7.2 9.3 90 0.8 NW 19 30 10 16 1019.5 1019.6 0.6
04/05:30pm 11.5 7.3 9.8 89 0.9 NW 22 33 12 18 1019.5 - 0.6
04/05:00pm 11.5 7.3 9.9 90 0.8 NW 22 33 12 18 1019.5 - 0.6
04/04:30pm 11.5 7.3 9.9 90 0.8 NW 22 32 12 17 1019.4 - 0.6
04/04:00pm 11.4 7.3 10.0 91 0.7 NW 22 35 12 19 1019.5 - 0.6
04/03:30pm 11.3 6.3 9.7 90 0.8 NW 26 39 14 21 1019.5 - 0.6
04/03:00pm 11.5 6.5 9.4 87 1.1 NW 26 35 14 19 1019.4 1019.5 0.4
04/02:30pm 12.0 6.5 9.2 83 1.4 NW 28 39 15 21 1019.3 - 0.4
04/02:00pm 12.0 7.3 9.4 84 1.3 WNW 24 37 13 20 1019.4 - 0.4
04/01:30pm 11.8 6.8 9.4 85 1.2 NW 26 39 14 21 1019.5 - 0.4
04/01:00pm 11.4 6.0 9.5 88 1.0 NW 28 41 15 22 1019.7 - 0.4
04/12:30pm 10.9 5.8 9.2 89 0.9 NW 26 43 14 23 1020.0 - 0.4
04/12:14pm 11.0 5.5 9.3 89 0.9 NW 28 46 15 25 1020.2 - 0.4
04/12:00pm 11.2 5.3 9.1 87 1.0 NW 30 43 16 23 1020.3 1020.4 0.4
04/11:30am 11.3 5.9 9.6 89 0.9 NW 28 43 15 23 1020.6 - 0.2
04/11:00am 11.1 5.9 9.0 87 1.0 NW 26 37 14 20 1020.8 - 0.0
04/10:30am 11.0 5.7 8.6 85 1.2 NW 26 41 14 22 1020.8 - 0.0
04/10:00am 10.9 6.1 8.7 86 1.1 NW 24 39 13 21 1020.7 - 0.0
04/09:30am 10.7 5.4 8.3 85 1.2 NW 26 37 14 20 1020.4 - 0.0
04/09:00am 10.7 4.9 8.1 84 1.3 NW 28 43 15 23 1020.3 1020.4 0.0
04/08:30am 10.4 4.2 8.0 85 1.2 NW 30 41 16 22 1020.3 - 0.0
04/08:00am 10.3 4.4 7.7 84 1.3 NW 28 44 15 24 1020.1 - 0.0
04/07:30am 10.0 4.3 6.9 81 1.5 NW 26 35 14 19 1019.9 - 0.0
04/07:01am 10.3 4.3 7.0 80 1.6 NW 28 46 15 25 1019.8 - 0.0
04/07:00am 10.4 4.0 7.1 80 1.6 NW 30 46 16 25 1019.8 - 0.0
04/06:30am 10.4 4.8 7.3 81 1.5 NW 26 44 14 24 1019.7 - 0.0
04/06:00am 10.2 3.7 6.7 79 1.6 NW 30 48 16 26 1019.5 1019.6 0.0
04/05:46am 10.4 4.0 7.1 80 1.6 NW 30 54 16 29 1019.2 - 0.0
04/05:30am 10.0 3.5 6.7 80 1.6 NW 30 44 16 24 1019.4 - 0.0
04/05:00am 9.7 3.6 6.4 80 1.5 NNW 28 43 15 23 1019.4 - 0.0
04/04:30am 9.2 2.5 5.6 78 1.6 NNW 30 39 16 21 1019.4 - 0.0
04/04:00am 9.3 2.5 5.3 76 1.8 NNW 30 43 16 23 1019.5 - 0.0
04/03:30am 9.4 3.0 5.2 75 1.9 NNW 28 41 15 22 1019.8 - 0.0
04/03:00am 8.9 1.6 4.5 74 1.9 NNW 32 50 17 27 1020.3 1020.4 0.0
04/02:46am 9.0 2.1 4.4 73 2.0 NNW 30 48 16 26 1020.1 - 0.0
04/02:30am 8.9 1.6 4.3 73 2.0 NNW 32 44 17 24 1020.0 - 0.0
04/02:00am 8.9 2.7 4.1 72 2.1 NNW 26 37 14 20 1020.7 - 0.0
04/01:35am 9.2 2.6 4.0 70 2.3 NW 28 48 15 26 1020.6 - 0.0
04/01:30am 9.0 2.7 3.6 69 2.3 NW 26 39 14 21 1020.7 - 0.0
04/01:00am 9.2 3.2 3.6 68 2.4 NW 24 37 13 20 1020.9 - 0.0
04/12:30am 9.4 3.1 3.6 67 2.5 NW 26 41 14 22 1021.5 - 0.0
04/12:00am 9.2 2.8 3.2 66 2.6 NW 26 41 14 22 1021.9 1022.0 0.0
 
Date/Time
EST
Temp
°C
App
Temp
°C
Dew
Point
Rel
Hum
%
Delta-T
°C
Wind Press
QNH
hPa
Press
MSL
hPa
Rain
since 9 am
mm
Dir
 
Spd
km/h
Gust
km/h
Spd
kts
Gust
kts
03/11:30pm 9.0 2.6 3.4 68 2.4 NW 26 39 14 21 1021.9 - 0.0
03/11:00pm 9.0 3.0 3.6 69 2.3 NW 24 41 13 22 1022.1 - 0.0
03/10:30pm 8.9 3.2 2.7 65 2.6 NW 22 41 12 22 1022.3 - 0.0
03/10:00pm 8.9 2.4 2.7 65 2.6 NW 26 39 14 21 1022.7 - 0.0
03/09:30pm 8.7 3.0 2.9 67 2.5 NW 22 33 12 18 1022.9 - 0.0
03/09:00pm 8.7 2.2 2.5 65 2.6 NNW 26 39 14 21 1023.0 1023.1 0.0
03/08:30pm 8.6 2.4 2.2 64 2.7 NNW 24 37 13 20 1023.2 - 0.0
03/08:00pm 9.1 3.3 2.2 62 2.9 NW 22 33 12 18 1023.3 - 0.0
03/07:30pm 8.8 2.6 2.2 63 2.8 NNW 24 37 13 20 1023.4 - 0.0
03/07:00pm 8.7 2.4 1.8 62 2.9 NW 24 33 13 18 1023.5 - 0.0
03/06:30pm 8.8 3.4 2.4 64 2.7 NNW 20 33 11 18 1023.8 - 0.0
03/06:00pm 8.8 2.6 2.4 64 2.7 NNW 24 37 13 20 1023.7 1023.8 0.0
03/05:30pm 8.9 3.1 2.5 64 2.7 NNW 22 33 12 18 1023.8 - 0.0
03/05:00pm 8.9 3.2 2.7 65 2.6 NNW 22 35 12 19 1024.0 - 0.0
03/04:30pm 9.0 3.7 3.2 67 2.5 NNW 20 30 11 16 1024.2 - 0.0
03/04:00pm 9.5 4.3 3.3 65 2.7 NW 20 32 11 17 1024.4 - 0.0
03/03:30pm 9.7 4.5 3.7 66 2.6 NW 20 33 11 18 1024.4 - 0.0
03/03:00pm 10.1 4.9 3.8 65 2.8 NW 20 33 11 18 1024.6 1024.7 0.0
03/02:30pm 9.9 4.4 3.9 66 2.6 WNW 22 37 12 20 1024.9 - 0.0
03/02:00pm 9.5 3.9 3.7 67 2.5 WNW 22 35 12 19 1025.3 - 0.0
03/01:30pm 9.8 4.8 4.4 69 2.4 NW 20 32 11 17 1025.7 - 0.0
03/01:00pm 9.5 3.7 4.3 70 2.3 NW 24 35 13 19 1026.1 - 0.0
03/12:30pm 9.6 4.2 4.4 70 2.3 WNW 22 35 12 19 1026.4 - 0.0
03/12:00pm 9.4 4.0 4.6 72 2.1 NW 22 32 12 17 1026.7 1026.9 0.0
03/11:30am 9.6 4.0 5.2 74 2.0 NW 24 33 13 18 1027.0 - 0.0
03/11:00am 9.2 4.2 4.6 73 2.1 WNW 20 32 11 17 1027.3 - 0.0
03/10:30am 9.3 4.7 5.7 78 1.6 NW 19 30 10 16 1027.5 - 0.0
03/10:00am 8.5 5.1 6.0 84 1.1 NW 13 24 7 13 1027.8 - 0.0
03/09:30am 8.0 5.0 6.1 88 0.9 NNW 11 17 6 9 1027.8 - 0.0
03/09:00am 7.6 3.4 5.9 89 0.8 NNW 17 20 9 11 1027.8 1028.0 0.8
03/08:30am 7.0 3.1 5.3 89 0.8 NNW 15 22 8 12 1027.9 - 0.8
03/08:00am 7.0 3.8 5.2 88 0.8 N 11 15 6 8 1027.8 - 0.8
03/07:30am 7.6 3.6 5.1 84 1.1 NNW 15 24 8 13 1027.7 - 0.6
03/07:00am 7.9 3.7 3.9 76 1.7 N 15 19 8 10 1027.5 - 0.4
03/06:30am 8.5 5.3 3.1 69 2.3 NW 9 17 5 9 1027.3 - 0.2
03/06:00am 9.5 5.3 3.9 68 2.4 W 15 24 8 13 1027.1 1027.3 0.2
03/05:30am 9.5 5.1 4.9 73 2.1 WSW 17 22 9 12 1027.1 - 0.2

Other Formats:

Comma delimited format used in spreadsheet applications
http://www.bom.gov.au/fwo/IDV60801/IDV60801.94842.axf

JavaScript Object Notation format (JSON) in row-major order
http://www.bom.gov.au/fwo/IDV60801/IDV60801.94842.json